createdAt,value
2022-10-05T00:00:32.314Z,86.55
2022-10-05T00:05:34.492Z,83.06
2022-10-05T00:10:33.699Z,81.45
2022-10-05T00:15:35.860Z,81.45
2022-10-05T00:20:34.994Z,79.34
2022-10-05T00:25:36.137Z,76.25
2022-10-05T00:30:37.269Z,76.69
2022-10-05T00:35:39.866Z,74.38
2022-10-05T00:40:38.953Z,75.06
2022-10-05T00:45:40.127Z,73.74
2022-10-05T00:50:41.294Z,74.86
2022-10-05T00:55:42.381Z,75.78
2022-10-05T01:00:43.563Z,76.39
2022-10-05T01:05:45.668Z,74.79
2022-10-05T01:10:44.848Z,76.12
2022-10-05T01:15:46.109Z,74.96
2022-10-05T01:20:48.195Z,74.25
2022-10-05T01:25:48.299Z,73.71
2022-10-05T01:30:48.453Z,72.89
2022-10-05T01:35:47.640Z,72.75
2022-10-05T01:40:48.810Z,72.34
2022-10-05T01:45:50.020Z,72.78
2022-10-05T01:50:51.192Z,72.99
2022-10-05T01:55:52.419Z,74.21
2022-10-05T02:00:53.619Z,74.35
2022-10-05T02:05:54.756Z,74.45
2022-10-05T02:10:55.957Z,74.58
2022-10-05T02:15:57.158Z,73.97
2022-10-05T02:20:58.529Z,73.36
2022-10-05T02:25:59.665Z,72.04
2022-10-05T02:31:00.775Z,71.39
2022-10-05T02:36:01.991Z,71.70
2022-10-05T02:41:03.087Z,71.77
2022-10-05T02:46:05.263Z,71.77
2022-10-05T02:51:04.508Z,72.01
2022-10-05T02:56:05.612Z,72.01
2022-10-05T03:01:07.831Z,71.70
2022-10-05T03:06:08.013Z,72.82
2022-10-05T03:11:07.178Z,75.16
2022-10-05T03:16:08.353Z,75.20
2022-10-05T03:21:09.506Z,75.61
2022-10-05T03:26:10.589Z,74.38
2022-10-05T03:31:11.859Z,72.92
2022-10-05T03:36:12.986Z,72.58
2022-10-05T03:41:14.149Z,72.17
2022-10-05T03:46:15.331Z,78.44
2022-10-05T03:51:16.550Z,81.86
2022-10-05T03:56:17.729Z,83.23
2022-10-05T04:01:18.955Z,85.25
2022-10-05T04:06:20.202Z,86.46
2022-10-05T04:11:21.442Z,87.28
2022-10-05T04:16:21.716Z,88.24
2022-10-05T04:21:24.061Z,88.90
2022-10-05T04:26:23.270Z,89.52
2022-10-05T04:31:24.487Z,90.89
2022-10-05T04:36:25.564Z,91.97
2022-10-05T04:41:26.897Z,92.17
2022-10-05T04:46:28.033Z,92.52
2022-10-05T04:51:29.230Z,94.42
2022-10-05T04:56:30.429Z,95.08
2022-10-05T05:01:31.648Z,96.58
2022-10-05T05:06:32.794Z,96.42
2022-10-05T05:11:34.007Z,96.11
2022-10-05T05:16:35.254Z,96.11
2022-10-05T05:21:36.450Z,96.21
2022-10-05T05:26:39.189Z,95.59
2022-10-05T05:31:38.433Z,95.18
2022-10-05T05:36:39.621Z,95.08
2022-10-05T05:41:40.806Z,95.95
2022-10-05T05:47:02.197Z,96.41
2022-10-05T05:51:42.016Z,96.81
2022-10-05T05:56:43.483Z,96.81
2022-10-05T06:01:44.706Z,96.81
2022-10-05T06:06:44.379Z,97.02
2022-10-05T06:11:44.715Z,98.05
2022-10-05T06:16:46.128Z,97.85
2022-10-05T06:21:44.634Z,97.85
2022-10-05T06:26:46.033Z,97.75
2022-10-05T06:31:43.324Z,95.81
2022-10-05T06:36:44.706Z,94.33
2022-10-05T06:41:44.100Z,93.21
2022-10-05T06:46:45.444Z,91.59
2022-10-05T06:51:44.872Z,90.89
2022-10-05T06:56:46.329Z,90.13
2022-10-05T07:01:46.906Z,89.78
2022-10-05T07:06:46.269Z,88.65
2022-10-05T07:11:51.293Z,88.06
2022-10-05T07:16:47.334Z,84.98
2022-10-05T07:21:49.841Z,83.87
2022-10-05T07:26:49.777Z,76.04
2022-10-05T07:31:50.129Z,77.33
2022-10-05T07:36:54.409Z,70.45
2022-10-05T07:41:50.425Z,69.17
2022-10-05T07:46:50.278Z,68.52
2022-10-05T07:51:50.737Z,75.83
2022-10-05T07:56:50.451Z,76.95
2022-10-05T08:01:50.915Z,70.92
2022-10-05T08:06:52.027Z,67.11
2022-10-05T08:11:51.251Z,67.93
2022-10-05T08:16:52.354Z,64.76
2022-10-05T08:21:53.565Z,62.96
2022-10-05T08:26:54.691Z,62.40
2022-10-05T08:31:55.898Z,62.14
2022-10-05T08:36:57.078Z,63.08
2022-10-05T08:41:58.209Z,64.90
2022-10-05T08:46:59.340Z,62.54
2022-10-05T08:52:00.643Z,68.00
2022-10-05T08:57:01.833Z,66.78
2022-10-05T09:02:02.926Z,66.99
2022-10-05T09:07:06.117Z,65.47
2022-10-05T09:12:05.222Z,63.42
2022-10-05T09:17:07.366Z,62.01
2022-10-05T09:22:06.603Z,63.06
2022-10-05T09:27:07.766Z,61.32
2022-10-05T09:32:14.215Z,60.81
2022-10-05T09:37:09.878Z,58.56
2022-10-05T09:42:11.104Z,60.83
2022-10-05T09:47:12.394Z,59.36
2022-10-05T09:52:18.600Z,57.12
2022-10-05T09:57:13.492Z,57.55
2022-10-05T10:02:14.798Z,57.79
2022-10-05T10:07:16.094Z,58.65
2022-10-05T10:12:17.446Z,58.33
2022-10-05T10:17:18.731Z,57.59
2022-10-05T10:22:19.928Z,57.09
2022-10-05T10:27:21.149Z,59.25
2022-10-05T10:32:23.238Z,56.38
2022-10-05T10:37:22.364Z,56.73
2022-10-05T10:42:26.094Z,57.43
2022-10-05T10:47:24.449Z,58.16
2022-10-05T10:52:23.626Z,57.60
2022-10-05T10:57:25.749Z,54.43
2022-10-05T11:02:26.061Z,58.33
2022-10-05T11:07:24.144Z,53.50
2022-10-05T11:12:25.274Z,54.62
2022-10-05T11:17:26.366Z,55.20
2022-10-05T11:22:27.768Z,54.45
2022-10-05T11:27:28.979Z,54.27
2022-10-05T11:32:30.170Z,58.72
2022-10-05T11:37:31.366Z,54.29
2022-10-05T11:42:32.502Z,56.77
2022-10-05T11:47:33.664Z,55.64
2022-10-05T11:52:35.762Z,57.76
2022-10-05T11:57:34.848Z,54.47
2022-10-05T12:02:38.788Z,58.14
2022-10-05T12:07:35.891Z,54.71
2022-10-05T12:12:36.977Z,54.39
2022-10-05T12:17:38.139Z,56.16
2022-10-05T12:22:39.393Z,56.06
2022-10-05T12:27:41.546Z,54.27
2022-10-05T12:32:40.657Z,54.86
2022-10-05T12:37:41.824Z,52.14
2022-10-05T12:42:42.965Z,55.01
2022-10-05T12:47:44.488Z,54.08
2022-10-05T12:52:43.866Z,54.46
2022-10-05T12:57:45.011Z,51.95
2022-10-05T13:02:47.196Z,53.96
2022-10-05T13:07:46.395Z,54.46
2022-10-05T13:12:47.486Z,55.99
2022-10-05T13:17:48.619Z,57.21
2022-10-05T13:22:55.617Z,58.71
2022-10-05T13:27:50.814Z,59.64
2022-10-05T13:32:51.965Z,60.63
2022-10-05T13:37:53.073Z,61.30
2022-10-05T13:42:56.192Z,62.13
2022-10-05T13:47:56.335Z,63.13
2022-10-05T13:52:55.532Z,64.13
2022-10-05T13:57:56.774Z,67.29
2022-10-05T14:02:58.938Z,66.63
2022-10-05T14:07:58.034Z,66.13
2022-10-05T14:13:02.162Z,68.33
2022-10-05T14:17:59.358Z,66.03
2022-10-05T14:23:00.552Z,61.33
2022-10-05T14:28:01.907Z,59.14
2022-10-05T14:33:03.170Z,56.21
2022-10-05T14:38:04.292Z,57.51
2022-10-05T14:43:05.455Z,56.18
2022-10-05T14:48:06.823Z,61.41
2022-10-05T14:53:06.379Z,61.09
2022-10-05T14:58:08.476Z,59.86
2022-10-05T15:03:07.652Z,60.03
2022-10-05T15:08:08.842Z,59.35
2022-10-05T15:13:11.678Z,62.27
2022-10-05T15:18:10.888Z,63.03
2022-10-05T15:23:12.070Z,65.56
2022-10-05T15:28:13.319Z,69.36
2022-10-05T15:33:14.420Z,68.69
2022-10-05T15:38:15.659Z,70.43
2022-10-05T15:43:16.772Z,70.43
2022-10-05T15:48:18.061Z,71.96
2022-10-05T15:53:21.176Z,74.51
2022-10-05T15:58:21.014Z,72.27
2022-10-05T16:03:22.401Z,77.50
2022-10-05T16:08:21.786Z,77.50
2022-10-05T16:13:21.069Z,76.79
2022-10-05T16:18:23.484Z,78.54
2022-10-05T16:23:22.856Z,77.13
2022-10-05T16:28:24.307Z,78.78
2022-10-05T16:33:23.625Z,78.31
2022-10-05T16:38:25.148Z,78.35
2022-10-05T16:43:24.604Z,79.90
2022-10-05T16:48:26.273Z,81.89
2022-10-05T16:53:25.840Z,80.18
2022-10-05T16:58:27.011Z,82.13
2022-10-05T17:03:29.154Z,83.38
2022-10-05T17:08:29.572Z,83.42
2022-10-05T17:13:28.721Z,84.77
2022-10-05T17:18:29.821Z,86.43
2022-10-05T17:23:30.918Z,86.87
2022-10-05T17:28:32.126Z,88.27
2022-10-05T17:33:34.240Z,88.27
2022-10-05T17:38:33.422Z,88.82
2022-10-05T17:43:34.550Z,88.42
2022-10-05T17:48:35.712Z,89.02
2022-10-05T17:53:36.875Z,89.98
2022-10-05T17:58:39.115Z,90.02
2022-10-05T18:03:38.298Z,90.22
2022-10-05T18:08:39.423Z,90.02
2022-10-05T18:13:40.823Z,82.70
2022-10-05T18:18:41.989Z,78.30
2022-10-05T18:23:43.101Z,77.02
2022-10-05T18:28:44.759Z,75.34
2022-10-05T18:33:44.946Z,74.66
2022-10-05T18:38:44.055Z,75.77
2022-10-05T18:43:45.398Z,78.27
2022-10-05T18:48:48.031Z,80.16
2022-10-05T18:53:48.215Z,76.48
2022-10-05T18:58:47.343Z,75.00
2022-10-05T19:03:48.841Z,74.16
2022-10-05T19:08:48.272Z,73.25
2022-10-05T19:13:49.446Z,72.41
2022-10-05T19:18:50.700Z,74.80
2022-10-05T19:23:52.104Z,76.12
2022-10-05T19:28:52.589Z,77.97
2022-10-05T19:33:52.716Z,76.62
2022-10-05T19:38:52.143Z,75.68
2022-10-05T19:43:51.311Z,75.88
2022-10-05T19:48:52.619Z,76.08
2022-10-05T19:53:53.760Z,74.87
2022-10-05T19:58:54.954Z,74.43
2022-10-05T20:04:00.993Z,74.53
2022-10-05T20:08:56.219Z,75.13
2022-10-05T20:13:57.473Z,75.27
2022-10-05T20:18:58.633Z,77.37
2022-10-05T20:23:59.782Z,77.91
2022-10-05T20:29:01.039Z,78.96
2022-10-05T20:34:03.162Z,77.84
2022-10-05T20:39:03.282Z,76.19
2022-10-05T20:44:02.463Z,78.69
2022-10-05T20:49:03.696Z,78.79
2022-10-05T20:54:04.984Z,80.45
2022-10-05T20:59:06.193Z,81.95
2022-10-05T21:04:07.449Z,82.50
2022-10-05T21:09:09.583Z,82.19
2022-10-05T21:14:08.689Z,83.85
2022-10-05T21:19:09.865Z,84.30
2022-10-05T21:24:11.965Z,84.30
2022-10-05T21:29:12.803Z,84.44
2022-10-05T21:34:13.146Z,79.41
2022-10-05T21:39:12.285Z,77.72
2022-10-05T21:44:13.391Z,75.31
2022-10-05T21:49:17.562Z,77.72
2022-10-05T21:54:14.587Z,77.55
2022-10-05T21:59:15.703Z,75.35
2022-10-05T22:04:16.883Z,74.00
2022-10-05T22:09:18.085Z,73.76
2022-10-05T22:14:19.181Z,74.51
2022-10-05T22:19:20.280Z,74.74
2022-10-05T22:24:21.376Z,75.79
2022-10-05T22:29:22.489Z,74.84
2022-10-05T22:34:23.719Z,77.75
2022-10-05T22:39:25.796Z,79.99
2022-10-05T22:44:25.145Z,81.86
2022-10-05T22:49:26.239Z,82.51
2022-10-05T22:54:30.035Z,83.12
2022-10-05T22:59:28.370Z,81.01
2022-10-05T23:04:29.683Z,81.39
2022-10-05T23:09:30.934Z,80.78
2022-10-05T23:14:32.117Z,79.18
2022-10-05T23:19:35.287Z,79.90
2022-10-05T23:24:34.559Z,81.79
2022-10-05T23:29:35.684Z,83.06
2022-10-05T23:34:36.878Z,82.95
2022-10-05T23:39:38.046Z,81.23
2022-10-05T23:44:39.257Z,80.37
2022-10-05T23:49:40.440Z,78.51
2022-10-05T23:54:42.532Z,78.27
2022-10-05T23:59:41.703Z,79.12
